Terminal Aerodrome Forecast
Issued by NWS Wilmington, NC

Home | Current Version | Previous Version | Text Only | Print | Product List | Glossary On
Versions: 1 2 3 4 5 6 7 8 9 10 11 12
116
FTUS42 KILM 262328
TAFILM
TAF
KILM 262328Z 2700/2724 18010KT P6SM SKC
     FM270200 VRB04KT P6SM FEW250
     FM271200 07004KT P6SM SKC
     FM271600 14009KT P6SM SKC=

USA.gov is the U.S. government's official web portal to all federal, state and local government web resources and services.